San Francisco, CA (94142)

9:56 PM PDT on September 18, 2014 (GMT -0700)
SOMA | Change Station
CLOSE
Current Station
Personal Weather Station
Location: San Francisco, CA
Elevation: 20 ft
Nearby Weather Stations

Elev 20 ft 37.78 °N, 122.41 °W | Updated 11 minutes ago

Clear
Clear
65.5 °F
Feels Like 65.5 °F
N
1.0
Wind Variable Wind from NW
Gusts 6.0 mph

Today
High -- | Low -- °F
--% Chance of Precip.
Yesterday
High -- | Low -- °F
Precip. -- in
6:54 AM 7:12 PM
Waning Crescent, 22% visible
Pressure 29.87 in
Visibility 10.0 miles
Clouds Clear
Dew Point 63 °F
Humidity 90%
Rainfall 0.06 in
Snow Depth 2 in , 1 in , 0 in
UV 0.0 out of 12
Pollen 5.10 out of 12
PM2.5 Good
Flu Activity Not available.
METAR KSFO 190356Z 30006KT 10SM CLR 21/17 A2987 RMK AO2 SLP115 T02060172 $

More Conditions Fewer Conditions

Pressure 29.87 in
Visibility 10.0 miles
Clouds Clear
Dew Point 63 °F
Humidity 90%
Rainfall 0.06 in
Snow Depth 2 in , 1 in , 0 in
UV 0.0 out of 12
Pollen 5.10 out of 12
PM2.5 Good
Flu Activity Not available.
METAR KSFO 190356Z 30006KT 10SM CLR 21/17 A2987 RMK AO2 SLP115 T02060172 $

More Conditions Fewer Conditions

10-Day Weather Forecast

Almanac

Astronomy

Sep. 18, 2014 Rise Set
Actual Time 6:54 AM PDT 7:12 PM PDT
Civil Twilight 6:27 AM PDT 7:38 PM PDT
Nautical Twilight 5:57 AM PDT 8:09 PM PDT
Astronomical Twilight 5:25 AM PDT 8:40 PM PDT
Moon 1:55 AM PDT (9/18) 4:03 PM PDT (9/18)
Length of Visible Light 13h 11m
Length of Day
12h 18m
Tomorrow will be 2m 25s shorter.
Waning Crescent, 22% of the Moon is Illuminated
Sep 19
Waning Crescent
Sep 24
New
Oct 1
First Quarter
Oct 8
Full
Oct 15
Last Quarter

Yesterday's Extremes

State Highs State Lows

Community

WunderPhotos

Upload Photos

1,754,558 photos uploaded!

Nearby

Air Quality

  Air Quality AQ Index Pollutant
Yesterday Good
OZONE
Yesterday Good
PM2.5
Current Good
PM2.5
Thursday Good
OZONE
Friday Good
PM2.5
Saturday Moderate
PM2.5
Sunday Moderate
PM2.5
Monday Moderate
PM2.5
Tuesday Moderate
PM2.5

Snow Depth

Station Depth Elevation
CSS Lab 2 in 6900 ft
Summit Meadow 1 in 9122 ft
Forestdale Creek 0 in 8029 ft
Echo Peak 1 in 7800 ft
Tahoe City Cross 0 in 6750 ft

Earthquake Activity

City Distance Mag. Time & Date
The Geysers, California 69 miles 2.5 11:29 PM PDT
2014-09-17
Cobb, California 71 miles 2.7 1:23 PM PDT
2014-09-16
Minimum magnitude displayed is 2.5.

Coastal Water Temperatures

Place Temperature
No Stations Reporting

Nearby Weather Stations